Stellar, Texas
Current Conditions -  °F | °C
As of 1:55 AM on Saturday 25 Oct 2014 (Local Time) from K3T5 Reporting Station
Clear Clear  
Wind Chill: 65°   Ceiling: Unl
Heat Index: 65°   Visibility: 10mi
Dew Point: 59°   Wind: 3mph
Humidity: 82%   Direction: 210°SSW
Pressure: 30.13"   Gusts: NA
Location:  29.7805°N, 97.1131°W
Report Text: K3T5 250655Z AUTO 21003KT 10SM CLR 18/15 A3013 RMK AO2 T01840152
Loading
Personal Weather Stations






























Interactive Weather Map
Tropical Storm Tracking
New forecast layout! Learn more

10-Day Weather Forecast

Advertisements
Track Severe Weather on mobile